Time,TemperatureF,DewpointF,PressureIn,WindDirection,WindDirectionDegrees,WindSpeedMPH,WindSpeedGustMPH,Humidity,HourlyPrecipIn,Conditions,Clouds,dailyrainin,SoftwareType,DateUTC
2013-09-10 00:02:00,75.5,66.8,29.78,West,270,0.0,0.0,74,0.00,,,0.00,WUHU21636XXSP,2013-09-10 05:02:00,
2013-09-10 00:07:00,75.3,66.6,29.78,NNW,337,0.0,0.0,74,0.00,,,0.00,WUHU21636XXSP,2013-09-10 05:07:00,
2013-09-10 00:12:00,75.3,66.6,29.79,NNW,337,0.0,0.0,74,0.00,,,0.00,WUHU21636XXSP,2013-09-10 05:12:00,
2013-09-10 00:17:00,75.3,67.0,29.78,NNW,337,0.0,0.0,75,0.00,,,0.00,WUHU21636XXSP,2013-09-10 05:17:00,
2013-09-10 00:22:00,75.2,67.2,29.78,NNW,337,0.0,0.0,76,0.00,,,0.00,WUHU21636XXSP,2013-09-10 05:22:00,
2013-09-10 00:27:00,75.0,66.7,29.78,NW,315,0.0,0.0,75,0.00,,,0.00,WUHU21636XXSP,2013-09-10 05:27:00,
2013-09-10 00:32:00,75.0,66.7,29.79,WNW,292,0.0,0.0,75,0.00,,,0.00,WUHU21636XXSP,2013-09-10 05:32:00,
2013-09-10 00:37:00,74.8,66.5,29.79,WNW,292,0.0,0.0,75,0.00,,,0.00,WUHU21636XXSP,2013-09-10 05:37:00,
2013-09-10 00:42:00,74.6,66.3,29.78,WNW,292,0.0,0.0,75,0.00,,,0.00,WUHU21636XXSP,2013-09-10 05:42:00,
2013-09-10 00:47:00,74.6,66.6,29.79,WNW,292,0.0,0.0,76,0.00,,,0.00,WUHU21636XXSP,2013-09-10 05:47:00,
2013-09-10 00:52:00,74.3,66.4,29.79,WNW,292,0.0,0.0,76,0.00,,,0.00,WUHU21636XXSP,2013-09-10 05:52:00,
2013-09-10 00:57:00,74.3,66.4,29.79,WNW,292,0.0,0.0,76,0.00,,,0.00,WUHU21636XXSP,2013-09-10 05:57:00,
2013-09-10 01:02:00,74.2,66.3,29.79,WNW,292,0.0,0.0,76,0.00,,,0.00,WUHU21636XXSP,2013-09-10 06:02:00,
2013-09-10 01:07:00,74.0,66.1,29.79,WNW,292,0.0,0.0,76,0.00,,,0.00,WUHU21636XXSP,2013-09-10 06:07:00,
2013-09-10 01:12:00,73.8,65.9,29.79,West,270,0.0,0.0,76,0.00,,,0.00,WUHU21636XXSP,2013-09-10 06:12:00,
2013-09-10 01:17:00,73.6,65.7,29.79,NNE,22,0.0,0.0,76,0.00,,,0.00,WUHU21636XXSP,2013-09-10 06:17:00,
2013-09-10 01:22:00,73.6,65.7,29.79,NNE,22,0.0,0.0,76,0.00,,,0.00,WUHU21636XXSP,2013-09-10 06:22:00,
2013-09-10 01:27:00,73.6,65.7,29.80,NNE,22,0.0,0.0,76,0.00,,,0.00,WUHU21636XXSP,2013-09-10 06:27:00,
2013-09-10 01:32:00,73.6,66.1,29.80,NNE,22,0.0,0.0,77,0.00,,,0.00,WUHU21636XXSP,2013-09-10 06:32:00,
2013-09-10 01:37:00,73.4,65.5,29.80,North,0,0.0,0.0,76,0.00,,,0.00,WUHU21636XXSP,2013-09-10 06:37:00,
2013-09-10 01:42:00,73.4,65.5,29.80,West,270,0.0,0.0,76,0.00,,,0.00,WUHU21636XXSP,2013-09-10 06:42:00,
2013-09-10 01:47:00,73.4,65.5,29.80,West,270,0.0,0.0,76,0.00,,,0.00,WUHU21636XXSP,2013-09-10 06:47:00,
2013-09-10 01:52:00,73.4,65.5,29.80,ENE,67,0.0,0.0,76,0.00,,,0.00,WUHU21636XXSP,2013-09-10 06:52:00,
2013-09-10 01:57:00,73.6,65.3,29.80,NE,45,0.0,0.0,75,0.00,,,0.00,WUHU21636XXSP,2013-09-10 06:57:00,
2013-09-10 02:02:00,73.6,65.7,29.80,NE,45,0.0,0.0,76,0.00,,,0.00,WUHU21636XXSP,2013-09-10 07:02:00,
2013-09-10 02:07:00,73.6,65.7,29.81,WSW,247,0.0,0.0,76,0.00,,,0.00,WUHU21636XXSP,2013-09-10 07:07:00,
2013-09-10 02:12:00,74.0,66.1,29.81,WSW,247,0.0,0.0,76,0.00,,,0.00,WUHU21636XXSP,2013-09-10 07:12:00,
2013-09-10 02:17:00,74.0,65.7,29.81,WSW,247,0.0,0.0,75,0.00,,,0.00,WUHU21636XXSP,2013-09-10 07:17:00,
2013-09-10 02:22:00,74.0,66.1,29.81,WSW,247,0.0,0.0,76,0.00,,,0.00,WUHU21636XXSP,2013-09-10 07:22:00,
2013-09-10 02:27:00,73.6,65.3,29.81,NW,315,0.0,0.0,75,0.00,,,0.00,WUHU21636XXSP,2013-09-10 07:27:00,
2013-09-10 02:32:00,73.6,65.7,29.81,NNE,22,0.8,0.8,76,0.00,,,0.00,WUHU21636XXSP,2013-09-10 07:32:00,
2013-09-10 02:37:00,73.6,65.7,29.81,NE,45,3.4,3.4,76,0.00,,,0.00,WUHU21636XXSP,2013-09-10 07:37:00,
2013-09-10 02:42:00,73.4,65.5,29.81,East,90,0.0,3.4,76,0.00,,,0.00,WUHU21636XXSP,2013-09-10 07:42:00,
2013-09-10 02:47:00,73.4,65.5,29.82,East,90,0.0,0.0,76,0.00,,,0.00,WUHU21636XXSP,2013-09-10 07:47:00,
2013-09-10 02:52:00,73.4,65.5,29.82,East,90,0.0,0.0,76,0.00,,,0.00,WUHU21636XXSP,2013-09-10 07:52:00,
2013-09-10 02:57:00,73.4,65.5,29.82,East,90,0.0,0.0,76,0.00,,,0.00,WUHU21636XXSP,2013-09-10 07:57:00,
2013-09-10 03:02:00,73.3,65.4,29.82,East,90,0.0,0.0,76,0.00,,,0.00,WUHU21636XXSP,2013-09-10 08:02:00,
2013-09-10 03:07:00,73.1,65.2,29.82,East,90,0.0,0.0,76,0.00,,,0.00,WUHU21636XXSP,2013-09-10 08:07:00,
2013-09-10 03:12:00,73.1,65.2,29.83,East,90,0.0,0.0,76,0.00,,,0.00,WUHU21636XXSP,2013-09-10 08:12:00,
2013-09-10 03:17:00,73.1,65.6,29.83,East,90,0.0,0.0,77,0.00,,,0.00,WUHU21636XXSP,2013-09-10 08:17:00,
2013-09-10 03:22:00,72.7,65.2,29.83,East,90,0.0,0.0,77,0.00,,,0.00,WUHU21636XXSP,2013-09-10 08:22:00,
2013-09-10 03:27:00,72.7,65.2,29.84,East,90,0.0,0.0,77,0.00,,,0.00,WUHU21636XXSP,2013-09-10 08:27:00,
2013-09-10 03:32:00,72.4,65.0,29.84,East,90,0.0,0.0,77,0.00,,,0.00,WUHU21636XXSP,2013-09-10 08:32:00,
2013-09-10 03:37:00,72.4,65.0,29.84,East,90,0.0,0.0,77,0.00,,,0.00,WUHU21636XXSP,2013-09-10 08:37:00,
2013-09-10 03:42:00,72.3,64.9,29.84,East,90,0.0,0.0,77,0.00,,,0.00,WUHU21636XXSP,2013-09-10 08:42:00,
2013-09-10 03:47:00,72.1,65.0,29.84,East,90,0.0,0.0,78,0.00,,,0.00,WUHU21636XXSP,2013-09-10 08:47:00,
2013-09-10 03:52:00,71.7,64.6,29.84,East,90,0.0,0.0,78,0.00,,,0.00,WUHU21636XXSP,2013-09-10 08:52:00,
2013-09-10 03:57:00,71.7,64.6,29.84,WNW,292,0.0,0.0,78,0.00,,,0.00,WUHU21636XXSP,2013-09-10 08:57:00,
2013-09-10 04:02:00,71.5,64.4,29.84,WNW,292,0.0,0.0,78,0.00,,,0.00,WUHU21636XXSP,2013-09-10 09:02:00,
2013-09-10 04:07:00,71.5,64.4,29.84,West,270,0.0,0.0,78,0.00,,,0.00,WUHU21636XXSP,2013-09-10 09:07:00,
2013-09-10 04:12:00,71.4,64.6,29.84,West,270,0.0,0.0,79,0.00,,,0.00,WUHU21636XXSP,2013-09-10 09:12:00,
2013-09-10 04:17:00,71.2,64.4,29.84,West,270,0.0,0.0,79,0.00,,,0.00,WUHU21636XXSP,2013-09-10 09:17:00,
2013-09-10 04:22:00,71.0,64.2,29.84,West,270,0.0,0.0,79,0.00,,,0.00,WUHU21636XXSP,2013-09-10 09:22:00,
2013-09-10 04:27:00,71.0,64.2,29.84,West,270,0.0,0.0,79,0.00,,,0.00,WUHU21636XXSP,2013-09-10 09:27:00,
2013-09-10 04:32:00,70.8,64.0,29.84,West,270,0.0,0.0,79,0.00,,,0.00,WUHU21636XXSP,2013-09-10 09:32:00,
2013-09-10 04:37:00,70.6,63.8,29.84,West,270,0.0,0.0,79,0.00,,,0.00,WUHU21636XXSP,2013-09-10 09:37:00,
2013-09-10 04:42:00,70.6,63.8,29.84,West,270,0.0,0.0,79,0.00,,,0.00,WUHU21636XXSP,2013-09-10 09:42:00,
2013-09-10 04:47:00,70.5,64.1,29.84,West,270,0.0,0.0,80,0.00,,,0.00,WUHU21636XXSP,2013-09-10 09:47:00,
2013-09-10 04:52:00,70.5,64.1,29.84,West,270,0.0,0.0,80,0.00,,,0.00,WUHU21636XXSP,2013-09-10 09:52:00,
2013-09-10 04:57:00,70.2,63.9,29.84,West,270,0.0,0.0,80,0.00,,,0.00,WUHU21636XXSP,2013-09-10 09:57:00,
2013-09-10 05:02:00,70.2,63.9,29.84,West,270,0.0,0.0,80,0.00,,,0.00,WUHU21636XXSP,2013-09-10 10:02:00,
2013-09-10 05:07:00,70.0,63.7,29.85,West,270,0.0,0.0,80,0.00,,,0.00,WUHU21636XXSP,2013-09-10 10:07:00,
2013-09-10 05:12:00,69.8,63.5,29.85,West,270,0.0,0.0,80,0.00,,,0.00,WUHU21636XXSP,2013-09-10 10:12:00,
2013-09-10 05:17:00,69.8,63.5,29.85,West,270,0.0,0.0,80,0.00,,,0.00,WUHU21636XXSP,2013-09-10 10:17:00,
2013-09-10 05:22:00,69.8,63.5,29.85,West,270,0.0,0.0,80,0.00,,,0.00,WUHU21636XXSP,2013-09-10 10:22:00,
2013-09-10 05:27:00,69.8,63.5,29.85,West,270,0.0,0.0,80,0.00,,,0.00,WUHU21636XXSP,2013-09-10 10:27:00,
2013-09-10 05:32:00,69.6,63.6,29.85,West,270,0.0,0.0,81,0.00,,,0.00,WUHU21636XXSP,2013-09-10 10:32:00,
2013-09-10 05:37:00,69.6,63.6,29.85,West,270,0.0,0.0,81,0.00,,,0.00,WUHU21636XXSP,2013-09-10 10:37:00,
2013-09-10 05:42:00,69.6,63.6,29.85,West,270,0.0,0.0,81,0.00,,,0.00,WUHU21636XXSP,2013-09-10 10:42:00,
2013-09-10 05:47:00,69.5,63.5,29.85,West,270,0.0,0.0,81,0.00,,,0.00,WUHU21636XXSP,2013-09-10 10:47:00,
2013-09-10 05:52:00,69.3,63.3,29.85,West,270,0.0,0.0,81,0.00,,,0.00,WUHU21636XXSP,2013-09-10 10:52:00,
2013-09-10 05:57:00,69.3,63.3,29.86,West,270,0.0,0.0,81,0.00,,,0.00,WUHU21636XXSP,2013-09-10 10:57:00,
2013-09-10 06:02:00,69.3,63.3,29.86,West,270,0.0,0.0,81,0.00,,,0.00,WUHU21636XXSP,2013-09-10 11:02:00,
2013-09-10 06:07:00,69.1,63.1,29.86,West,270,0.0,0.0,81,0.00,,,0.00,WUHU21636XXSP,2013-09-10 11:07:00,
2013-09-10 06:12:00,68.9,62.5,29.86,West,270,0.0,0.0,80,0.00,,,0.00,WUHU21636XXSP,2013-09-10 11:12:00,
2013-09-10 06:17:00,68.7,62.3,29.86,West,270,0.0,0.0,80,0.00,,,0.00,WUHU21636XXSP,2013-09-10 11:17:00,
2013-09-10 06:22:00,68.7,62.7,29.87,West,270,0.0,0.0,81,0.00,,,0.00,WUHU21636XXSP,2013-09-10 11:22:00,
2013-09-10 06:27:00,68.7,62.7,29.87,West,270,0.0,0.0,81,0.00,,,0.00,WUHU21636XXSP,2013-09-10 11:27:00,
2013-09-10 06:32:00,68.6,62.6,29.87,West,270,0.0,0.0,81,0.00,,,0.00,WUHU21636XXSP,2013-09-10 11:32:00,
2013-09-10 06:37:00,68.4,62.4,29.87,West,270,0.0,0.0,81,0.00,,,0.00,WUHU21636XXSP,2013-09-10 11:37:00,
2013-09-10 06:42:00,68.4,62.4,29.87,West,270,0.0,0.0,81,0.00,,,0.00,WUHU21636XXSP,2013-09-10 11:42:00,
2013-09-10 06:47:00,68.1,62.2,29.87,West,270,0.0,0.0,81,0.00,,,0.00,WUHU21636XXSP,2013-09-10 11:47:00,
2013-09-10 06:52:00,67.9,62.0,29.88,West,270,0.0,0.0,81,0.00,,,0.00,WUHU21636XXSP,2013-09-10 11:52:00,
2013-09-10 06:57:00,67.9,62.0,29.88,West,270,0.0,0.0,81,0.00,,,0.00,WUHU21636XXSP,2013-09-10 11:57:00,
2013-09-10 07:02:00,67.7,61.7,29.88,West,270,0.0,0.0,81,0.00,,,0.00,WUHU21636XXSP,2013-09-10 12:02:00,
2013-09-10 07:07:00,67.7,62.1,29.88,West,270,0.0,0.0,82,0.00,,,0.00,WUHU21636XXSP,2013-09-10 12:07:00,
2013-09-10 07:12:00,67.7,62.1,29.88,West,270,0.0,0.0,82,0.00,,,0.00,WUHU21636XXSP,2013-09-10 12:12:00,
2013-09-10 07:17:00,67.7,62.1,29.89,West,270,0.0,0.0,82,0.00,,,0.00,WUHU21636XXSP,2013-09-10 12:17:00,
2013-09-10 07:22:00,67.7,62.1,29.89,West,270,0.0,0.0,82,0.00,,,0.00,WUHU21636XXSP,2013-09-10 12:22:00,
2013-09-10 07:27:00,67.7,62.1,29.89,West,270,0.0,0.0,82,0.00,,,0.00,WUHU21636XXSP,2013-09-10 12:27:00,
2013-09-10 07:32:00,67.7,62.1,29.89,West,270,0.0,0.0,82,0.00,,,0.00,WUHU21636XXSP,2013-09-10 12:32:00,
2013-09-10 07:37:00,67.9,62.3,29.89,West,270,0.0,0.0,82,0.00,,,0.00,WUHU21636XXSP,2013-09-10 12:37:00,
2013-09-10 07:42:00,67.9,62.3,29.89,West,270,0.0,0.0,82,0.00,,,0.00,WUHU21636XXSP,2013-09-10 12:42:00,
2013-09-10 07:47:00,67.9,62.3,29.89,West,270,0.0,0.0,82,0.00,,,0.00,WUHU21636XXSP,2013-09-10 12:47:00,
2013-09-10 07:52:00,67.9,62.3,29.89,West,270,0.0,0.0,82,0.00,,,0.00,WUHU21636XXSP,2013-09-10 12:52:00,
2013-09-10 07:57:00,67.9,62.3,29.90,West,270,0.0,0.0,82,0.00,,,0.00,WUHU21636XXSP,2013-09-10 12:57:00,
2013-09-10 08:02:00,68.4,63.0,29.90,West,270,0.0,0.0,83,0.00,,,0.00,WUHU21636XXSP,2013-09-10 13:02:00,
2013-09-10 08:07:00,68.4,63.0,29.90,WNW,292,0.0,0.0,83,0.00,,,0.00,WUHU21636XXSP,2013-09-10 13:07:00,
2013-09-10 08:12:00,68.7,63.3,29.90,WNW,292,0.0,0.0,83,0.00,,,0.00,WUHU21636XXSP,2013-09-10 13:12:00,
2013-09-10 08:17:00,68.9,63.5,29.90,WNW,292,0.0,0.0,83,0.00,,,0.00,WUHU21636XXSP,2013-09-10 13:17:00,
2013-09-10 08:22:00,69.1,63.8,29.90,West,270,0.0,0.0,83,0.00,,,0.00,WUHU21636XXSP,2013-09-10 13:22:00,
2013-09-10 08:27:00,69.6,64.3,29.91,NW,315,0.0,0.0,83,0.00,,,0.00,WUHU21636XXSP,2013-09-10 13:27:00,
2013-09-10 08:32:00,69.8,64.1,29.90,NW,315,0.0,0.0,82,0.00,,,0.00,WUHU21636XXSP,2013-09-10 13:32:00,
2013-09-10 08:37:00,70.6,64.9,29.90,ESE,112,0.0,0.0,82,0.00,,,0.00,WUHU21636XXSP,2013-09-10 13:37:00,
2013-09-10 08:42:00,70.8,64.7,29.90,SE,135,0.0,0.0,81,0.00,,,0.00,WUHU21636XXSP,2013-09-10 13:42:00,
2013-09-10 08:47:00,71.2,65.1,29.90,ESE,112,0.0,4.4,81,0.00,,,0.00,WUHU21636XXSP,2013-09-10 13:47:00,
2013-09-10 08:52:00,71.5,65.4,29.90,East,90,2.6,4.4,81,0.00,,,0.00,WUHU21636XXSP,2013-09-10 13:52:00,
2013-09-10 08:57:00,71.5,65.1,29.90,ESE,112,0.0,2.6,80,0.00,,,0.00,WUHU21636XXSP,2013-09-10 13:57:00,
2013-09-10 09:02:00,71.7,65.3,29.90,SSW,202,0.0,0.0,80,0.00,,,0.00,WUHU21636XXSP,2013-09-10 14:02:00,
2013-09-10 09:07:00,72.1,65.7,29.90,NNE,22,0.0,0.0,80,0.00,,,0.00,WUHU21636XXSP,2013-09-10 14:07:00,
2013-09-10 09:12:00,72.4,66.0,29.91,NNE,22,0.0,0.0,80,0.00,,,0.00,WUHU21636XXSP,2013-09-10 14:12:00,
2013-09-10 09:17:00,72.7,65.5,29.91,NW,315,0.0,2.6,78,0.00,,,0.00,WUHU21636XXSP,2013-09-10 14:17:00,
2013-09-10 09:22:00,73.1,65.9,29.92,NW,315,0.0,2.6,78,0.00,,,0.00,WUHU21636XXSP,2013-09-10 14:22:00,
2013-09-10 09:27:00,73.4,66.6,29.92,North,0,0.0,0.0,79,0.00,,,0.00,WUHU21636XXSP,2013-09-10 14:27:00,
2013-09-10 09:32:00,73.6,66.4,29.92,ENE,67,0.0,0.0,78,0.00,,,0.00,WUHU21636XXSP,2013-09-10 14:32:00,
2013-09-10 09:37:00,74.0,66.8,29.91,ESE,112,0.0,0.0,78,0.00,,,0.00,WUHU21636XXSP,2013-09-10 14:37:00,
2013-09-10 09:42:00,74.3,67.2,29.91,SE,135,0.0,0.0,78,0.00,,,0.00,WUHU21636XXSP,2013-09-10 14:42:00,
2013-09-10 09:47:00,74.6,67.0,29.91,West,270,0.0,0.0,77,0.00,,,0.00,WUHU21636XXSP,2013-09-10 14:47:00,
2013-09-10 09:52:00,75.0,67.4,29.92,SW,225,0.0,0.0,77,0.00,,,0.00,WUHU21636XXSP,2013-09-10 14:52:00,
2013-09-10 09:58:00,75.3,67.3,29.91,SSW,202,0.0,0.0,76,0.00,,,0.00,WUHU21636XXSP,2013-09-10 14:58:00,
2013-09-10 10:03:00,75.3,67.3,29.91,South,180,0.0,1.6,76,0.00,,,0.00,WUHU21636XXSP,2013-09-10 15:03:00,
2013-09-10 10:08:00,75.9,67.6,29.91,SW,225,0.0,1.6,75,0.00,,,0.00,WUHU21636XXSP,2013-09-10 15:08:00,
2013-09-10 10:13:00,76.2,67.9,29.92,ESE,112,1.2,1.2,75,0.00,,,0.00,WUHU21636XXSP,2013-09-10 15:13:00,
2013-09-10 10:18:00,76.2,67.9,29.91,ESE,112,4.8,6.6,75,0.00,,,0.00,WUHU21636XXSP,2013-09-10 15:18:00,
2013-09-10 10:23:00,76.9,67.7,29.92,South,180,0.0,6.6,73,0.00,,,0.00,WUHU21636XXSP,2013-09-10 15:23:00,
2013-09-10 10:28:00,77.2,68.0,29.91,SW,225,0.0,0.0,73,0.00,,,0.00,WUHU21636XXSP,2013-09-10 15:28:00,
2013-09-10 10:33:00,77.8,68.3,29.92,WSW,247,1.6,1.6,72,0.00,,,0.00,WUHU21636XXSP,2013-09-10 15:33:00,
2013-09-10 10:38:00,78.1,67.8,29.92,WSW,247,0.0,1.6,70,0.00,,,0.00,WUHU21636XXSP,2013-09-10 15:38:00,
2013-09-10 10:43:00,78.5,68.2,29.91,WSW,247,0.0,1.6,70,0.00,,,0.00,WUHU21636XXSP,2013-09-10 15:43:00,
2013-09-10 10:48:00,79.0,68.6,29.91,ESE,112,4.4,4.4,70,0.00,,,0.00,WUHU21636XXSP,2013-09-10 15:48:00,
2013-09-10 10:53:00,79.3,68.9,29.90,SE,135,5.8,5.8,70,0.00,,,0.00,WUHU21636XXSP,2013-09-10 15:53:00,
2013-09-10 10:58:00,79.9,68.6,29.90,ESE,112,5.2,5.8,68,0.00,,,0.00,WUHU21636XXSP,2013-09-10 15:58:00,
2013-09-10 11:03:00,80.0,68.3,29.89,ESE,112,3.4,6.2,67,0.00,,,0.00,WUHU21636XXSP,2013-09-10 16:03:00,
2013-09-10 11:08:00,80.6,68.9,29.89,ESE,112,0.0,6.2,67,0.00,,,0.00,WUHU21636XXSP,2013-09-10 16:08:00,
2013-09-10 11:13:00,81.0,68.3,29.89,WSW,247,0.8,1.6,65,0.00,,,0.00,WUHU21636XXSP,2013-09-10 16:13:00,
2013-09-10 11:18:00,81.2,68.5,29.89,West,270,0.0,1.6,65,0.00,,,0.00,WUHU21636XXSP,2013-09-10 16:18:00,
2013-09-10 11:23:00,81.9,68.8,29.90,West,270,0.0,0.8,64,0.00,,,0.00,WUHU21636XXSP,2013-09-10 16:23:00,
2013-09-10 11:28:00,82.1,69.4,29.90,WSW,247,0.0,0.0,65,0.00,,,0.00,WUHU21636XXSP,2013-09-10 16:28:00,
2013-09-10 11:33:00,82.8,69.2,29.90,WNW,292,0.0,0.0,63,0.00,,,0.00,WUHU21636XXSP,2013-09-10 16:33:00,
2013-09-10 11:38:00,83.3,69.1,29.90,WSW,247,0.0,14.2,62,0.00,,,0.00,WUHU21636XXSP,2013-09-10 16:38:00,
2013-09-10 11:43:00,83.5,68.9,29.90,WSW,247,0.0,14.2,61,0.00,,,0.00,WUHU21636XXSP,2013-09-10 16:43:00,
2013-09-10 11:48:00,84.0,69.8,29.90,SSE,157,0.0,0.0,62,0.00,,,0.00,WUHU21636XXSP,2013-09-10 16:48:00,
2013-09-10 11:53:00,84.4,70.2,29.90,South,180,8.4,8.4,62,0.00,,,0.00,WUHU21636XXSP,2013-09-10 16:53:00,
2013-09-10 11:58:00,84.7,70.1,29.90,West,270,0.0,8.4,61,0.00,,,0.00,WUHU21636XXSP,2013-09-10 16:58:00,
2013-09-10 12:03:00,84.9,69.8,29.90,South,180,0.0,8.4,60,0.00,,,0.00,WUHU21636XXSP,2013-09-10 17:03:00,
2013-09-10 12:08:00,85.4,70.7,29.91,West,270,5.2,5.2,61,0.00,,,0.00,WUHU21636XXSP,2013-09-10 17:08:00,
2013-09-10 12:13:00,85.7,71.0,29.90,SSE,157,0.0,5.2,61,0.00,,,0.00,WUHU21636XXSP,2013-09-10 17:13:00,
2013-09-10 12:18:00,85.9,70.2,29.90,SW,225,5.2,5.2,59,0.00,,,0.00,WUHU21636XXSP,2013-09-10 17:18:00,
2013-09-10 12:23:00,86.1,70.4,29.90,SW,225,0.0,5.2,59,0.00,,,0.00,WUHU21636XXSP,2013-09-10 17:23:00,
2013-09-10 12:28:00,86.3,71.1,29.90,SW,225,0.0,0.0,60,0.00,,,0.00,WUHU21636XXSP,2013-09-10 17:28:00,
2013-09-10 12:33:00,86.6,70.3,29.91,SE,135,0.0,0.0,58,0.00,,,0.00,WUHU21636XXSP,2013-09-10 17:33:00,
2013-09-10 12:38:00,86.6,70.3,29.90,West,270,0.0,0.0,58,0.00,,,0.00,WUHU21636XXSP,2013-09-10 17:38:00,
2013-09-10 12:43:00,86.8,71.1,29.90,West,270,0.0,0.0,59,0.00,,,0.00,WUHU21636XXSP,2013-09-10 17:43:00,
2013-09-10 12:48:00,87.5,71.1,29.90,West,270,1.6,2.2,58,0.00,,,0.00,WUHU21636XXSP,2013-09-10 17:48:00,
2013-09-10 12:53:00,87.6,71.2,29.91,West,270,5.2,5.2,58,0.00,,,0.00,WUHU21636XXSP,2013-09-10 17:53:00,
2013-09-10 12:58:00,87.3,70.4,29.91,West,270,0.0,7.0,57,0.00,,,0.00,WUHU21636XXSP,2013-09-10 17:58:00,
2013-09-10 13:03:00,87.6,70.7,29.91,WSW,247,7.6,7.6,57,0.00,,,0.00,WUHU21636XXSP,2013-09-10 18:03:00,
2013-09-10 13:08:00,88.2,71.8,29.90,West,270,9.2,9.2,58,0.00,,,0.00,WUHU21636XXSP,2013-09-10 18:08:00,
2013-09-10 13:13:00,88.2,70.8,29.90,SE,135,7.6,9.2,56,0.00,,,0.00,WUHU21636XXSP,2013-09-10 18:13:00,
2013-09-10 13:18:00,88.2,71.3,29.91,WNW,292,0.0,9.2,57,0.00,,,0.00,WUHU21636XXSP,2013-09-10 18:18:00,
2013-09-10 13:23:00,88.4,71.0,29.91,West,270,0.0,3.4,56,0.00,,,0.00,WUHU21636XXSP,2013-09-10 18:23:00,
2013-09-10 13:28:00,88.5,71.1,29.90,North,0,0.8,3.4,56,0.00,,,0.00,WUHU21636XXSP,2013-09-10 18:28:00,
2013-09-10 13:33:00,88.5,71.1,29.90,West,270,0.0,0.8,56,0.00,,,0.00,WUHU21636XXSP,2013-09-10 18:33:00,
2013-09-10 13:38:00,88.9,71.5,29.90,West,270,3.0,5.8,56,0.00,,,0.00,WUHU21636XXSP,2013-09-10 18:38:00,
2013-09-10 13:43:00,89.1,71.1,29.91,NW,315,0.0,5.8,55,0.00,,,0.00,WUHU21636XXSP,2013-09-10 18:43:00,
2013-09-10 13:48:00,89.5,72.5,29.90,West,270,0.0,3.4,57,0.00,,,0.00,WUHU21636XXSP,2013-09-10 18:48:00,
2013-09-10 13:53:00,89.4,71.3,29.91,West,270,2.2,2.2,55,0.00,,,0.00,WUHU21636XXSP,2013-09-10 18:53:00,
2013-09-10 13:58:00,89.5,70.9,29.91,West,270,4.4,4.4,54,0.00,,,0.00,WUHU21636XXSP,2013-09-10 18:58:00,
2013-09-10 14:03:00,89.7,71.1,29.90,NE,46,4.9,7.0,54,0.00,,,0.00,WUHU21636XXSP,2013-09-10 19:03:00,
2013-09-10 14:08:00,90.1,73.1,29.90,NNW,337,0.0,7.0,57,0.00,,,0.00,WUHU21636XXSP,2013-09-10 19:08:00,
2013-09-10 14:13:00,90.1,71.4,29.90,WSW,247,0.0,0.8,54,0.00,,,0.00,WUHU21636XXSP,2013-09-10 19:13:00,
2013-09-10 14:18:00,90.1,72.0,29.90,WNW,292,1.6,1.6,55,0.00,,,0.00,WUHU21636XXSP,2013-09-10 19:18:00,
2013-09-10 14:23:00,90.3,71.6,29.90,West,270,0.0,1.6,54,0.00,,,0.00,WUHU21636XXSP,2013-09-10 19:23:00,
2013-09-10 14:28:00,90.3,71.6,29.90,NW,315,0.0,0.0,54,0.00,,,0.00,WUHU21636XXSP,2013-09-10 19:28:00,
2013-09-10 14:33:00,90.1,72.5,29.89,East,90,0.0,0.0,56,0.00,,,0.00,WUHU21636XXSP,2013-09-10 19:33:00,
2013-09-10 14:38:00,90.3,71.6,29.90,NNE,22,8.4,8.4,54,0.00,,,0.00,WUHU21636XXSP,2013-09-10 19:38:00,
2013-09-10 14:43:00,90.4,71.7,29.90,NNE,22,1.2,8.4,54,0.00,,,0.00,WUHU21636XXSP,2013-09-10 19:43:00,
2013-09-10 14:48:00,90.1,71.4,29.90,WNW,292,0.0,1.2,54,0.00,,,0.00,WUHU21636XXSP,2013-09-10 19:48:00,
2013-09-10 14:53:00,89.5,70.3,29.89,WSW,257,6.9,8.4,53,0.00,,,0.00,WUHU21636XXSP,2013-09-10 19:53:00,
2013-09-10 14:58:00,89.5,70.9,29.89,NE,45,0.0,8.4,54,0.00,,,0.00,WUHU21636XXSP,2013-09-10 19:58:00,
2013-09-10 15:03:00,89.7,71.6,29.89,North,0,2.2,6.2,55,0.00,,,0.00,WUHU21636XXSP,2013-09-10 20:03:00,
2013-09-10 15:08:00,90.4,70.6,29.89,WNW,292,3.0,5.2,52,0.00,,,0.00,WUHU21636XXSP,2013-09-10 20:08:00,
2013-09-10 15:13:00,90.4,71.7,29.89,South,180,0.8,5.2,54,0.00,,,0.00,WUHU21636XXSP,2013-09-10 20:13:00,
2013-09-10 15:18:00,90.4,70.6,29.89,NE,45,3.4,3.4,52,0.00,,,0.00,WUHU21636XXSP,2013-09-10 20:18:00,
2013-09-10 15:23:00,90.8,71.0,29.89,WSW,247,0.0,3.4,52,0.00,,,0.00,WUHU21636XXSP,2013-09-10 20:23:00,
2013-09-10 15:28:00,91.0,70.0,29.89,NNW,337,4.0,4.0,50,0.00,,,0.00,WUHU21636XXSP,2013-09-10 20:28:00,
2013-09-10 15:33:00,90.8,70.4,29.89,NW,315,0.0,4.0,51,0.00,,,0.00,WUHU21636XXSP,2013-09-10 20:33:00,
2013-09-10 15:38:00,91.0,71.2,29.89,West,270,6.2,6.2,52,0.00,,,0.00,WUHU21636XXSP,2013-09-10 20:38:00,
2013-09-10 15:43:00,90.6,70.2,29.89,SSE,157,0.0,6.2,51,0.00,,,0.00,WUHU21636XXSP,2013-09-10 20:43:00,
2013-09-10 15:48:00,91.0,71.2,29.89,East,90,5.8,5.8,52,0.00,,,0.00,WUHU21636XXSP,2013-09-10 20:48:00,
2013-09-10 15:53:00,91.0,71.2,29.89,WSW,247,0.0,5.8,52,0.00,,,0.00,WUHU21636XXSP,2013-09-10 20:53:00,
2013-09-10 15:58:00,91.6,71.7,29.89,East,90,6.2,6.2,52,0.00,,,0.00,WUHU21636XXSP,2013-09-10 20:58:00,
2013-09-10 16:03:00,91.6,71.1,29.89,WNW,292,0.0,6.2,51,0.00,,,0.00,WUHU21636XXSP,2013-09-10 21:03:00,
2013-09-10 16:08:00,91.6,71.1,29.89,WNW,292,6.2,6.2,51,0.00,,,0.00,WUHU21636XXSP,2013-09-10 21:08:00,
2013-09-10 16:13:00,91.6,71.1,29.89,ENE,67,1.6,6.2,51,0.00,,,0.00,WUHU21636XXSP,2013-09-10 21:13:00,
2013-09-10 16:18:00,91.6,71.1,29.89,WNW,292,0.8,6.2,51,0.00,,,0.00,WUHU21636XXSP,2013-09-10 21:18:00,
2013-09-10 16:23:00,91.6,71.1,29.89,NE,45,3.0,3.0,51,0.00,,,0.00,WUHU21636XXSP,2013-09-10 21:23:00,
2013-09-10 16:28:00,91.0,70.6,29.89,North,354,3.6,4.8,51,0.00,,,0.00,WUHU21636XXSP,2013-09-10 21:28:00,
2013-09-10 16:33:00,90.6,70.8,29.89,SSE,157,0.0,4.8,52,0.00,,,0.00,WUHU21636XXSP,2013-09-10 21:33:00,
2013-09-10 16:38:00,90.1,71.4,29.89,ENE,67,0.0,3.0,54,0.00,,,0.00,WUHU21636XXSP,2013-09-10 21:38:00,
2013-09-10 16:43:00,90.4,71.7,29.89,NW,315,0.0,0.0,54,0.00,,,0.00,WUHU21636XXSP,2013-09-10 21:43:00,
2013-09-10 16:48:00,90.6,70.2,29.89,ESE,112,0.0,7.0,51,0.00,,,0.00,WUHU21636XXSP,2013-09-10 21:48:00,
2013-09-10 16:53:00,90.6,70.2,29.89,West,270,3.0,7.0,51,0.00,,,0.00,WUHU21636XXSP,2013-09-10 21:53:00,
2013-09-10 16:58:00,90.4,71.2,29.89,West,270,4.8,4.8,53,0.00,,,0.00,WUHU21636XXSP,2013-09-10 21:58:00,
2013-09-10 17:03:00,90.4,71.2,29.89,SE,135,0.0,6.6,53,0.00,,,0.00,WUHU21636XXSP,2013-09-10 22:03:00,
2013-09-10 17:08:00,90.6,71.9,29.89,SE,135,0.0,6.6,54,0.00,,,0.00,WUHU21636XXSP,2013-09-10 22:08:00,
2013-09-10 17:13:00,90.4,71.7,29.89,SE,135,0.0,0.0,54,0.00,,,0.00,WUHU21636XXSP,2013-09-10 22:13:00,
2013-09-10 17:18:00,89.9,71.8,29.89,SE,135,0.0,0.0,55,0.00,,,0.00,WUHU21636XXSP,2013-09-10 22:18:00,
2013-09-10 17:23:00,89.7,72.2,29.89,SE,135,0.0,0.0,56,0.00,,,0.00,WUHU21636XXSP,2013-09-10 22:23:00,
2013-09-10 17:28:00,89.5,73.0,29.89,SE,135,0.0,0.0,58,0.00,,,0.00,WUHU21636XXSP,2013-09-10 22:28:00,
2013-09-10 17:33:00,88.9,72.5,29.90,SW,225,0.0,0.0,58,0.00,,,0.00,WUHU21636XXSP,2013-09-10 22:33:00,
2013-09-10 17:38:00,88.5,72.1,29.90,SW,225,0.0,0.0,58,0.00,,,0.00,WUHU21636XXSP,2013-09-10 22:38:00,
2013-09-10 17:43:00,88.2,71.8,29.90,SW,225,0.0,0.0,58,0.00,,,0.00,WUHU21636XXSP,2013-09-10 22:43:00,
2013-09-10 17:48:00,87.6,72.3,29.90,SW,225,0.0,0.0,60,0.00,,,0.00,WUHU21636XXSP,2013-09-10 22:48:00,
2013-09-10 17:53:00,87.3,71.5,29.90,SE,135,0.0,0.0,59,0.00,,,0.00,WUHU21636XXSP,2013-09-10 22:53:00,
2013-09-10 17:58:00,86.6,70.3,29.91,SSE,157,0.0,0.0,58,0.00,,,0.00,WUHU21636XXSP,2013-09-10 22:58:00,
2013-09-10 18:03:00,85.9,69.7,29.91,ESE,112,4.0,4.0,58,0.00,,,0.00,WUHU21636XXSP,2013-09-10 23:03:00,
2013-09-10 18:08:00,85.4,69.2,29.91,SE,135,0.0,6.2,58,0.00,,,0.00,WUHU21636XXSP,2013-09-10 23:08:00,
2013-09-10 18:13:00,84.9,68.3,29.91,ESE,112,0.8,6.2,57,0.00,,,0.00,WUHU21636XXSP,2013-09-10 23:13:00,
2013-09-10 18:18:00,84.4,68.3,29.91,SE,135,0.0,0.8,58,0.00,,,0.00,WUHU21636XXSP,2013-09-10 23:18:00,
2013-09-10 18:23:00,84.2,68.1,29.90,SSE,157,0.0,0.0,58,0.00,,,0.00,WUHU21636XXSP,2013-09-10 23:23:00,
2013-09-10 18:28:00,84.0,68.4,29.90,SE,135,0.0,0.0,59,0.00,,,0.00,WUHU21636XXSP,2013-09-10 23:28:00,
2013-09-10 18:33:00,83.7,68.1,29.90,SSW,202,0.0,1.6,59,0.00,,,0.00,WUHU21636XXSP,2013-09-10 23:33:00,
2013-09-10 18:38:00,83.3,68.2,29.91,SSW,202,0.0,1.6,60,0.00,,,0.00,WUHU21636XXSP,2013-09-10 23:38:00,
2013-09-10 18:43:00,82.8,67.8,29.91,SSE,157,0.0,0.0,60,0.00,,,0.00,WUHU21636XXSP,2013-09-10 23:43:00,
2013-09-10 18:48:00,82.3,67.8,29.91,SSE,157,0.0,0.0,61,0.00,,,0.00,WUHU21636XXSP,2013-09-10 23:48:00,
2013-09-10 18:53:00,82.1,68.1,29.91,SSE,157,0.0,0.0,62,0.00,,,0.00,WUHU21636XXSP,2013-09-10 23:53:00,
2013-09-10 18:58:00,81.8,67.3,29.91,SSE,157,0.0,0.0,61,0.00,,,0.00,WUHU21636XXSP,2013-09-10 23:58:00,
2013-09-10 19:03:00,81.6,67.1,29.91,SSE,157,0.0,0.0,61,0.00,,,0.00,WUHU21636XXSP,2013-09-11 00:03:00,
2013-09-10 19:08:00,81.2,66.7,29.91,SSE,157,0.0,0.0,61,0.00,,,0.00,WUHU21636XXSP,2013-09-11 00:08:00,
2013-09-10 19:13:00,81.0,67.0,29.91,SSE,157,0.0,0.0,62,0.00,,,0.00,WUHU21636XXSP,2013-09-11 00:13:00,
2013-09-10 19:18:00,80.6,67.6,29.91,SSE,157,0.0,0.0,64,0.00,,,0.00,WUHU21636XXSP,2013-09-11 00:18:00,
2013-09-10 19:23:00,80.4,67.8,29.92,SSE,157,0.0,0.0,65,0.00,,,0.00,WUHU21636XXSP,2013-09-11 00:23:00,
2013-09-10 19:28:00,80.2,68.1,29.92,SSE,157,0.0,0.0,66,0.00,,,0.00,WUHU21636XXSP,2013-09-11 00:28:00,
2013-09-10 19:33:00,79.7,68.0,29.92,SSE,157,0.0,0.0,67,0.00,,,0.00,WUHU21636XXSP,2013-09-11 00:33:00,
2013-09-10 19:38:00,79.3,68.0,29.93,SE,135,0.0,0.0,68,0.00,,,0.00,WUHU21636XXSP,2013-09-11 00:38:00,
2013-09-10 19:43:00,78.8,67.9,29.93,ESE,112,0.0,0.0,69,0.00,,,0.00,WUHU21636XXSP,2013-09-11 00:43:00,
2013-09-10 19:48:00,78.3,67.5,29.93,ESE,112,0.0,0.0,69,0.00,,,0.00,WUHU21636XXSP,2013-09-11 00:48:00,
2013-09-10 19:53:00,78.3,67.1,29.93,ESE,112,0.0,0.0,68,0.00,,,0.00,WUHU21636XXSP,2013-09-11 00:53:00,
2013-09-10 19:58:00,78.3,66.7,29.93,ESE,112,0.0,0.0,67,0.00,,,0.00,WUHU21636XXSP,2013-09-11 00:58:00,
2013-09-10 20:03:00,78.1,66.1,29.93,ESE,112,0.0,0.0,66,0.00,,,0.00,WUHU21636XXSP,2013-09-11 01:03:00,
2013-09-10 20:08:00,78.1,66.1,29.93,ESE,112,0.0,0.0,66,0.00,,,0.00,WUHU21636XXSP,2013-09-11 01:08:00,
2013-09-10 20:13:00,78.1,66.5,29.93,ESE,112,0.0,0.0,67,0.00,,,0.00,WUHU21636XXSP,2013-09-11 01:13:00,
2013-09-10 20:18:00,78.1,66.5,29.94,ESE,112,0.0,0.0,67,0.00,,,0.00,WUHU21636XXSP,2013-09-11 01:18:00,
2013-09-10 20:23:00,78.0,66.8,29.94,ESE,112,0.0,0.0,68,0.00,,,0.00,WUHU21636XXSP,2013-09-11 01:23:00,
2013-09-10 20:28:00,78.0,66.4,29.94,ESE,112,0.0,0.0,67,0.00,,,0.00,WUHU21636XXSP,2013-09-11 01:28:00,
2013-09-10 20:33:00,77.8,66.6,29.95,ESE,112,0.0,0.0,68,0.00,,,0.00,WUHU21636XXSP,2013-09-11 01:33:00,
2013-09-10 20:38:00,77.4,66.2,29.95,ESE,112,0.0,0.0,68,0.00,,,0.00,WUHU21636XXSP,2013-09-11 01:38:00,
2013-09-10 20:43:00,77.4,66.6,29.95,ESE,112,0.0,0.0,69,0.00,,,0.00,WUHU21636XXSP,2013-09-11 01:43:00,
2013-09-10 20:48:00,77.2,66.4,29.96,ESE,112,0.0,0.0,69,0.00,,,0.00,WUHU21636XXSP,2013-09-11 01:48:00,
2013-09-10 20:53:00,77.2,66.4,29.96,ESE,112,0.0,0.0,69,0.00,,,0.00,WUHU21636XXSP,2013-09-11 01:53:00,
2013-09-10 20:58:00,76.9,66.5,29.96,ESE,112,0.0,0.0,70,0.00,,,0.00,WUHU21636XXSP,2013-09-11 01:58:00,
2013-09-10 21:03:00,76.7,66.3,29.96,ESE,112,0.0,0.0,70,0.00,,,0.00,WUHU21636XXSP,2013-09-11 02:03:00,
2013-09-10 21:08:00,76.4,66.1,29.96,ESE,112,0.0,0.0,70,0.00,,,0.00,WUHU21636XXSP,2013-09-11 02:08:00,
2013-09-10 21:13:00,76.2,65.9,29.96,ESE,112,0.0,0.0,70,0.00,,,0.00,WUHU21636XXSP,2013-09-11 02:13:00,
2013-09-10 21:18:00,76.1,66.2,29.96,ESE,112,0.0,0.0,71,0.00,,,0.00,WUHU21636XXSP,2013-09-11 02:18:00,
2013-09-10 21:23:00,75.9,66.0,29.96,ESE,112,0.0,0.0,71,0.00,,,0.00,WUHU21636XXSP,2013-09-11 02:23:00,
2013-09-10 21:28:00,75.5,65.6,29.96,ESE,112,0.0,0.0,71,0.00,,,0.00,WUHU21636XXSP,2013-09-11 02:28:00,
2013-09-10 21:33:00,75.5,65.6,29.96,ESE,112,0.0,0.0,71,0.00,,,0.00,WUHU21636XXSP,2013-09-11 02:33:00,
2013-09-10 21:38:00,75.3,65.4,29.97,ESE,112,0.0,0.0,71,0.00,,,0.00,WUHU21636XXSP,2013-09-11 02:38:00,
2013-09-10 21:43:00,75.3,65.4,29.97,ESE,112,0.0,0.0,71,0.00,,,0.00,WUHU21636XXSP,2013-09-11 02:43:00,
2013-09-10 21:48:00,75.0,65.5,29.97,ESE,112,0.0,0.0,72,0.00,,,0.00,WUHU21636XXSP,2013-09-11 02:48:00,
2013-09-10 21:53:00,74.6,65.1,29.97,ESE,112,0.0,0.0,72,0.00,,,0.00,WUHU21636XXSP,2013-09-11 02:53:00,
2013-09-10 21:58:00,74.6,65.1,29.97,ESE,112,0.0,0.0,72,0.00,,,0.00,WUHU21636XXSP,2013-09-11 02:58:00,
2013-09-10 22:03:00,74.2,64.8,29.97,ESE,112,0.0,0.0,72,0.00,,,0.00,WUHU21636XXSP,2013-09-11 03:03:00,
2013-09-10 22:08:00,74.0,64.6,29.97,ESE,112,0.0,0.0,72,0.00,,,0.00,WUHU21636XXSP,2013-09-11 03:08:00,
2013-09-10 22:13:00,73.8,64.4,29.97,ESE,112,0.0,0.0,72,0.00,,,0.00,WUHU21636XXSP,2013-09-11 03:13:00,
2013-09-10 22:18:00,73.6,64.2,29.97,ESE,112,0.0,0.0,72,0.00,,,0.00,WUHU21636XXSP,2013-09-11 03:18:00,
2013-09-10 22:23:00,73.4,64.0,29.97,ESE,112,0.0,0.0,72,0.00,,,0.00,WUHU21636XXSP,2013-09-11 03:23:00,
2013-09-10 22:28:00,73.1,63.7,29.98,ESE,112,0.0,0.0,72,0.00,,,0.00,WUHU21636XXSP,2013-09-11 03:28:00,
2013-09-10 22:33:00,72.9,63.9,29.97,ESE,112,0.0,0.0,73,0.00,,,0.00,WUHU21636XXSP,2013-09-11 03:33:00,
2013-09-10 22:38:00,72.7,64.4,29.98,ESE,112,0.0,0.0,75,0.00,,,0.00,WUHU21636XXSP,2013-09-11 03:38:00,
2013-09-10 22:43:00,72.4,64.2,29.97,ESE,112,0.0,0.0,75,0.00,,,0.00,WUHU21636XXSP,2013-09-11 03:43:00,
2013-09-10 22:48:00,72.3,64.1,29.97,ESE,112,0.0,0.0,75,0.00,,,0.00,WUHU21636XXSP,2013-09-11 03:48:00,
2013-09-10 22:53:00,72.1,63.9,29.98,ESE,112,0.0,0.0,75,0.00,,,0.00,WUHU21636XXSP,2013-09-11 03:53:00,
2013-09-10 22:58:00,71.7,63.5,29.97,ESE,112,0.0,0.0,75,0.00,,,0.00,WUHU21636XXSP,2013-09-11 03:58:00,
2013-09-10 23:01:00,71.5,63.7,29.97,ESE,112,0.0,0.0,76,0.00,,,0.00,WUHU21636XXSP,2013-09-11 04:01:00,
2013-09-10 23:03:00,71.5,63.7,29.97,ESE,112,0.0,0.0,76,0.00,,,0.00,WUHU21636XXSP,2013-09-11 04:03:00,
2013-09-10 23:08:00,71.5,63.7,29.97,ESE,112,0.0,0.0,76,0.00,,,0.00,WUHU21636XXSP,2013-09-11 04:08:00,
2013-09-10 23:13:00,71.4,63.6,29.97,ESE,112,0.0,0.0,76,0.00,,,0.00,WUHU21636XXSP,2013-09-11 04:13:00,
2013-09-10 23:18:00,71.2,63.4,29.97,ESE,112,0.0,0.0,76,0.00,,,0.00,WUHU21636XXSP,2013-09-11 04:18:00,
2013-09-10 23:23:00,71.2,63.7,29.97,ESE,112,0.0,0.0,77,0.00,,,0.00,WUHU21636XXSP,2013-09-11 04:23:00,
2013-09-10 23:28:00,71.0,63.5,29.97,ESE,112,0.0,0.0,77,0.00,,,0.00,WUHU21636XXSP,2013-09-11 04:28:00,
2013-09-10 23:33:00,70.8,63.3,29.97,ESE,112,0.0,0.0,77,0.00,,,0.00,WUHU21636XXSP,2013-09-11 04:33:00,
2013-09-10 23:38:00,70.6,63.1,29.97,ESE,112,0.0,0.0,77,0.00,,,0.00,WUHU21636XXSP,2013-09-11 04:38:00,
2013-09-10 23:43:00,70.6,63.1,29.96,ESE,112,0.0,0.0,77,0.00,,,0.00,WUHU21636XXSP,2013-09-11 04:43:00,
2013-09-10 23:48:00,70.5,63.0,29.97,ESE,112,0.0,0.0,77,0.00,,,0.00,WUHU21636XXSP,2013-09-11 04:48:00,
2013-09-10 23:53:00,70.2,62.8,29.97,ESE,112,0.0,0.0,77,0.00,,,0.00,WUHU21636XXSP,2013-09-11 04:53:00,
2013-09-10 23:58:00,69.8,62.8,29.97,ESE,112,0.0,0.0,78,0.00,,,0.00,WUHU21636XXSP,2013-09-11 04:58:00,